Time;durP1;ratioP1;P1;durP2;ratioP2;P2;SDS_P1;SDS_P2;PMS_P1;PMS_P2;Temp;Humidity;BMP_temperature;BMP_pressure;BME280_temperature;BME280_humidity;BME280_pressure;Samples;Min_cycle;Max_cycle;Signal;HPM_P1;HPM_P2
2022/12/09 00:00:43;;;;;;;;;;;;;;;3.29;70.74;100472.34;7352033;19;21523;-66
2022/12/09 00:03:10;;;;;;;;;;;;;;;3.27;70.82;100482.03;7351477;19;20593;-65
2022/12/09 00:05:38;;;;;;;;;;;;;;;3.26;70.86;100473.41;7348920;19;21497;-66
2022/12/09 00:08:04;;;;;;;;;;;;;;;3.27;70.63;100466.44;7349920;19;19921;-65
2022/12/09 00:10:31;;;;;;;;;;;;;;;3.24;70.66;100472.72;7347560;19;19914;-66
2022/12/09 00:12:58;;;;;;;;;;;;;;;3.24;71.07;100472.72;7349900;19;19978;-66
2022/12/09 00:15:24;;;;;;;;;;;;;;;3.29;70.76;100472.34;7350033;19;20272;-65
2022/12/09 00:17:51;;;;;;;;;;;;;;;3.28;70.64;100474.13;7349124;19;20260;-66
2022/12/09 00:20:18;;;;;;;;;;;;;;;3.31;70.91;100473.06;7351839;19;20277;-65
2022/12/09 00:22:45;;;;;;;;;;;;;;;3.32;70.60;100470.34;7348464;19;19927;-66
2022/12/09 00:25:12;;;;;;;;;;;;;;;3.36;71.01;100466.56;7351973;19;19918;-65
2022/12/09 00:27:38;;;;;;;;;;;;;;;3.40;70.98;100462.00;7346681;19;20389;-66
2022/12/09 00:30:06;;;;;;;;;;;;;;;3.44;70.20;100464.22;7349086;19;19914;-65
2022/12/09 00:32:33;;;;;;;;;;;;;;;3.44;70.64;100468.59;7348210;19;19921;-66
2022/12/09 00:35:00;;;;;;;;;;;;;;;3.43;70.09;100464.34;7351454;19;20004;-66
2022/12/09 00:37:28;;;;;;;;;;;;;;;3.43;70.48;100467.78;7353157;19;20573;-66
2022/12/09 00:39:55;;;;;;;;;;;;;;;3.42;70.92;100460.06;7358021;19;20448;-66
2022/12/09 00:42:21;;;;;;;;;;;;;;;3.45;70.73;100455.47;7355356;19;19958;-65
2022/12/09 00:44:49;;;;;;;;;;;;;;;3.45;71.01;100455.47;7355677;19;19986;-64
2022/12/09 00:47:16;;;;;;;;;;;;;;;3.44;71.18;100459.03;7357084;19;19963;-65
2022/12/09 00:49:42;;;;;;;;;;;;;;;3.46;71.17;100453.69;7357447;19;19930;-66
2022/12/09 00:52:09;;;;;;;;;;;;;;;3.49;71.34;100460.44;7352124;19;19941;-66
2022/12/09 00:54:37;;;;;;;;;;;;;;;3.48;70.95;100461.38;7356128;19;19941;-65
2022/12/09 00:57:04;;;;;;;;;;;;;;;3.48;71.18;100456.19;7352924;19;19915;-65
2022/12/09 00:59:31;;;;;;;;;;;;;;;3.49;71.07;100463.06;7357075;19;19923;-66
2022/12/09 01:02:00;;;;;;;;;;;;;;;3.50;71.38;100455.16;7353941;19;20301;-65
2022/12/09 01:04:27;;;;;;;;;;;;;;;3.52;71.71;100452.41;7356130;19;20436;-66
2022/12/09 01:06:54;;;;;;;;;;;;;;;3.49;71.52;100448.28;7353029;19;19990;-65
2022/12/09 01:09:21;;;;;;;;;;;;;;;3.47;71.45;100457.13;7354920;19;19922;-66
2022/12/09 01:11:48;;;;;;;;;;;;;;;3.46;71.50;100456.28;7353974;19;21611;-66
2022/12/09 01:14:15;;;;;;;;;;;;;;;3.45;71.42;100452.06;7355993;19;19911;-66
2022/12/09 01:16:42;;;;;;;;;;;;;;;3.44;71.93;100448.63;7354213;19;19919;-66
2022/12/09 01:19:11;;;;;;;;;;;;;;;3.37;71.75;100446.59;7355062;19;20522;-65
2022/12/09 01:21:38;;;;;;;;;;;;;;;3.35;71.90;100438.91;7352705;19;20526;-65
2022/12/09 01:24:07;;;;;;;;;;;;;;;3.28;71.55;100432.53;7354302;19;20292;-64
2022/12/09 01:26:34;;;;;;;;;;;;;;;3.23;71.53;100429.47;7356603;19;19933;-65
2022/12/09 01:29:01;;;;;;;;;;;;;;;3.20;72.20;100434.88;7354551;19;20101;-65
2022/12/09 01:31:28;;;;;;;;;;;;;;;3.15;72.32;100431.00;7353920;19;19927;-65
2022/12/09 01:33:55;;;;;;;;;;;;;;;3.13;72.39;100435.47;7353125;19;19921;-65
2022/12/09 01:36:23;;;;;;;;;;;;;;;3.11;73.04;100432.97;7354104;19;19923;-67
2022/12/09 01:38:51;;;;;;;;;;;;;;;3.10;73.06;100431.31;7355372;19;19922;-67
2022/12/09 01:41:18;;;;;;;;;;;;;;;3.10;72.89;100425.31;7353727;19;19946;-65
2022/12/09 01:44:05;;;;;;;;;;;;;;;3.07;72.75;100430.72;7356804;19;19918;-66
2022/12/09 01:46:32;;;;;;;;;;;;;;;3.06;73.10;100422.09;7352692;19;19927;-65
2022/12/09 01:48:59;;;;;;;;;;;;;;;3.08;73.41;100419.38;7353081;19;20587;-65
2022/12/09 01:51:26;;;;;;;;;;;;;;;3.07;73.30;100421.16;7352629;19;19930;-67
2022/12/09 01:53:55;;;;;;;;;;;;;;;3.05;73.22;100422.22;7350515;19;19926;-66
2022/12/09 01:56:25;;;;;;;;;;;;;;;2.98;73.20;100417.47;7354288;19;19915;-66
2022/12/09 01:58:52;;;;;;;;;;;;;;;2.93;73.57;100423.97;7355975;19;19930;-65
2022/12/09 02:01:19;;;;;;;;;;;;;;;2.91;74.14;100428.44;7362806;19;19923;-65
2022/12/09 02:03:47;;;;;;;;;;;;;;;2.88;73.82;100426.06;7355717;19;19924;-65
2022/12/09 02:06:14;;;;;;;;;;;;;;;2.84;73.80;100428.09;7353000;19;19957;-65
2022/12/09 02:08:41;;;;;;;;;;;;;;;2.82;74.28;100429.13;7355505;19;19922;-64
2022/12/09 02:11:31;;;;;;;;;;;;;;;2.78;74.55;100425.09;7350665;19;19923;-66
2022/12/09 02:14:04;;;;;;;;;;;;;;;2.74;74.30;100427.09;7353231;19;20259;-65
2022/12/09 02:16:37;;;;;;;;;;;;;;;2.72;74.59;100418.59;7354912;19;19923;-65
2022/12/09 02:19:10;;;;;;;;;;;;;;;2.71;74.98;100416.94;7354941;19;20496;-64
2022/12/09 02:21:44;;;;;;;;;;;;;;;2.72;74.75;100415.16;7351555;19;19926;-64
2022/12/09 02:24:11;;;;;;;;;;;;;;;2.70;74.78;100415.25;7352968;19;19927;-64
2022/12/09 02:26:44;;;;;;;;;;;;;;;2.67;75.18;100417.25;7352193;19;20305;-66
2022/12/09 02:29:20;;;;;;;;;;;;;;;2.64;75.00;100412.31;7353074;19;20692;-65
2022/12/09 02:31:53;;;;;;;;;;;;;;;2.63;75.43;100408.88;7351013;19;19923;-65
2022/12/09 02:34:21;;;;;;;;;;;;;;;2.63;75.60;100410.66;7351722;19;19926;-64
2022/12/09 02:36:47;;;;;;;;;;;;;;;2.62;75.51;100414.19;7351813;19;19919;-66
2022/12/09 02:39:15;;;;;;;;;;;;;;;2.61;75.97;100409.91;7353449;19;19922;-64
2022/12/09 02:41:45;;;;;;;;;;;;;;;2.59;75.80;100416.03;7352354;19;19936;-66
2022/12/09 02:44:18;;;;;;;;;;;;;;;2.59;75.94;100405.66;7352897;19;19919;-66
2022/12/09 02:46:45;;;;;;;;;;;;;;;2.59;76.06;100405.66;7353387;19;20285;-65
2022/12/09 02:49:13;;;;;;;;;;;;;;;2.58;76.40;100409.22;7353112;19;19927;-66
2022/12/09 02:51:41;;;;;;;;;;;;;;;2.59;76.18;100407.47;7351362;19;19933;-66
2022/12/09 02:54:11;;;;;;;;;;;;;;;2.60;76.58;100401.31;7351772;19;19931;-64
2022/12/09 02:56:40;;;;;;;;;;;;;;;2.61;76.18;100402.13;7351854;19;19935;-64
2022/12/09 02:59:07;;;;;;;;;;;;;;;2.62;76.47;100403.78;7351688;19;20580;-65
2022/12/09 03:01:33;;;;;;;;;;;;;;;2.61;76.68;100397.78;7350296;19;20312;-64
2022/12/09 03:04:01;;;;;;;;;;;;;;;2.63;76.95;100403.69;7351501;19;19999;-65
2022/12/09 03:06:34;;;;;;;;;;;;;;;2.65;76.55;100403.56;7348920;19;19922;-65
2022/12/09 03:09:08;;;;;;;;;;;;;;;2.64;76.74;100400.16;7352290;19;21586;-65
2022/12/09 03:11:36;;;;;;;;;;;;;;;2.67;76.99;100399.09;7351803;19;20677;-65
2022/12/09 03:14:03;;;;;;;;;;;;;;;2.67;77.19;100396.50;7352738;19;19922;-64
2022/12/09 03:16:48;;;;;;;;;;;;;;;2.67;77.27;100397.31;7351326;19;20476;-64
2022/12/09 03:19:20;;;;;;;;;;;;;;;2.63;77.20;100393.31;7352315;19;20220;-64
2022/12/09 03:21:48;;;;;;;;;;;;;;;2.63;77.00;100395.06;7351063;19;19979;-64
2022/12/09 03:24:19;;;;;;;;;;;;;;;2.60;77.37;100390.91;7353951;19;20765;-65
2022/12/09 03:26:47;;;;;;;;;;;;;;;2.62;77.29;100396.00;7351359;19;19933;-64
2022/12/09 03:29:19;;;;;;;;;;;;;;;2.59;77.50;100394.47;7351010;19;20524;-63
2022/12/09 03:31:46;;;;;;;;;;;;;;;2.60;77.97;100398.69;7349554;19;19930;-64
2022/12/09 03:34:15;;;;;;;;;;;;;;;2.59;78.01;100397.06;7350590;19;19919;-64
2022/12/09 03:36:44;;;;;;;;;;;;;;;2.63;78.50;100395.06;7349095;19;20311;-65
2022/12/09 03:39:15;;;;;;;;;;;;;;;2.64;78.31;100387.19;7350483;19;20430;-64
2022/12/09 03:41:44;;;;;;;;;;;;;;;2.66;78.39;100387.88;7352089;19;20505;-64
2022/12/09 03:44:15;;;;;;;;;;;;;;;2.67;78.62;100389.53;7347302;19;20347;-64
2022/12/09 03:46:42;;;;;;;;;;;;;;;2.66;78.93;100390.47;7351692;19;19926;-65
2022/12/09 03:49:09;;;;;;;;;;;;;;;2.71;79.06;100398.75;7351064;19;20387;-64
2022/12/09 03:51:41;;;;;;;;;;;;;;;2.72;79.77;100391.78;7347094;19;20235;-64
2022/12/09 03:54:22;;;;;;;;;;;;;;;2.75;80.15;100401.94;7348877;19;20002;-64
2022/12/09 03:56:52;;;;;;;;;;;;;;;2.76;80.37;100398.41;7350324;19;19915;-63
2022/12/09 03:59:19;;;;;;;;;;;;;;;2.78;80.75;100397.38;7351755;19;19926;-66
2022/12/09 04:01:46;;;;;;;;;;;;;;;2.81;80.62;100404.91;7352757;19;19914;-66
2022/12/09 04:04:14;;;;;;;;;;;;;;;2.85;80.75;100402.91;7351516;19;20002;-65
2022/12/09 04:06:42;;;;;;;;;;;;;;;2.89;80.48;100393.97;7348156;19;20540;-63
2022/12/09 04:09:10;;;;;;;;;;;;;;;2.92;80.55;100391.13;7349767;19;19923;-66
2022/12/09 04:11:37;;;;;;;;;;;;;;;2.97;80.44;100389.84;7352404;19;19930;-64
2022/12/09 04:14:04;;;;;;;;;;;;;;;3.04;80.94;100392.00;7356530;19;19967;-66
2022/12/09 04:16:35;;;;;;;;;;;;;;;3.11;81.42;100401.78;7357890;19;19990;-64
2022/12/09 04:19:02;;;;;;;;;;;;;;;3.14;81.30;100395.53;7357387;19;19927;-65
2022/12/09 04:21:29;;;;;;;;;;;;;;;3.17;81.38;100398.72;7356018;19;19922;-65
2022/12/09 04:23:56;;;;;;;;;;;;;;;3.19;81.35;100406.41;7359183;19;20195;-65
2022/12/09 04:26:23;;;;;;;;;;;;;;;3.21;81.26;100405.34;7356065;19;20022;-64
2022/12/09 04:28:50;;;;;;;;;;;;;;;3.22;81.45;100400.97;7356292;19;19926;-64
2022/12/09 04:31:17;;;;;;;;;;;;;;;3.24;81.27;100405.13;7354402;19;20577;-66
2022/12/09 04:33:45;;;;;;;;;;;;;;;3.26;81.04;100402.38;7355366;19;19990;-66
2022/12/09 04:36:13;;;;;;;;;;;;;;;3.26;80.55;100405.00;7353270;19;19949;-66
2022/12/09 04:38:40;;;;;;;;;;;;;;;3.28;80.00;100403.94;7356100;19;19926;-66
2022/12/09 04:41:07;;;;;;;;;;;;;;;3.31;80.36;100408.06;7357058;19;19986;-67
2022/12/09 04:43:34;;;;;;;;;;;;;;;3.31;79.79;100406.28;7354918;19;20651;-64
2022/12/09 04:46:02;;;;;;;;;;;;;;;3.32;79.67;100399.34;7354780;19;19950;-65
2022/12/09 04:48:29;;;;;;;;;;;;;;;3.31;79.65;100390.69;7355816;19;19930;-64
2022/12/09 04:50:56;;;;;;;;;;;;;;;3.28;79.89;100393.56;7351175;19;20419;-66
2022/12/09 04:53:24;;;;;;;;;;;;;;;3.29;79.96;100396.97;7353844;19;21584;-66
2022/12/09 04:56:02;;;;;;;;;;;;;;;3.29;80.38;100387.41;7353906;19;20334;-64
2022/12/09 04:58:29;;;;;;;;;;;;;;;3.30;80.49;100394.25;7356214;19;20218;-66
2022/12/09 05:00:56;;;;;;;;;;;;;;;3.29;80.87;100392.63;7356736;19;19957;-66
2022/12/09 05:03:23;;;;;;;;;;;;;;;3.31;81.33;100390.69;7355415;19;19915;-65
2022/12/09 05:05:50;;;;;;;;;;;;;;;3.32;81.69;100388.94;7353862;19;19914;-66
2022/12/09 05:08:17;;;;;;;;;;;;;;;3.34;81.67;100395.69;7355220;19;20029;-66
2022/12/09 05:10:45;;;;;;;;;;;;;;;3.34;81.62;100394.84;7355248;19;20587;-65
2022/12/09 05:13:12;;;;;;;;;;;;;;;3.33;81.86;100386.22;7352224;19;20531;-66
2022/12/09 05:15:40;;;;;;;;;;;;;;;3.35;83.00;100389.50;7356314;19;19938;-66
2022/12/09 05:18:07;;;;;;;;;;;;;;;3.38;82.82;100389.31;7354332;19;19926;-65
2022/12/09 05:20:37;;;;;;;;;;;;;;;3.39;82.30;100390.13;7355638;19;20051;-65
2022/12/09 05:23:03;;;;;;;;;;;;;;;3.38;81.85;100386.69;7354160;19;20358;-66
2022/12/09 05:25:35;;;;;;;;;;;;;;;3.42;81.86;100380.31;7355219;19;19957;-66
2022/12/09 05:28:02;;;;;;;;;;;;;;;3.44;81.62;100378.44;7360808;19;20323;-65
2022/12/09 05:30:29;;;;;;;;;;;;;;;3.44;81.93;100372.41;7354208;19;20613;-64
2022/12/09 05:32:56;;;;;;;;;;;;;;;3.42;82.33;100375.13;7352430;19;19934;-64
2022/12/09 05:35:23;;;;;;;;;;;;;;;3.43;82.61;100374.19;7354619;19;19959;-64
2022/12/09 05:37:49;;;;;;;;;;;;;;;3.46;82.92;100373.09;7352293;19;19919;-65
2022/12/09 05:40:16;;;;;;;;;;;;;;;3.46;83.20;100373.09;7355875;19;20265;-64
2022/12/09 05:42:43;;;;;;;;;;;;;;;3.45;83.08;100361.88;7354803;19;19924;-65
2022/12/09 05:45:10;;;;;;;;;;;;;;;3.45;83.06;100356.66;7353834;19;19926;-65
2022/12/09 05:47:38;;;;;;;;;;;;;;;3.44;83.40;100362.84;7352790;19;19919;-64
2022/12/09 05:50:05;;;;;;;;;;;;;;;3.46;83.74;100373.09;7354248;19;20228;-64
2022/12/09 05:52:35;;;;;;;;;;;;;;;3.47;83.74;100369.56;7349269;19;20280;-64
2022/12/09 05:55:06;;;;;;;;;;;;;;;3.48;84.17;100373.81;7354331;19;19918;-66
2022/12/09 05:57:33;;;;;;;;;;;;;;;3.48;84.23;100362.59;7353780;19;20508;-66
2022/12/09 06:00:00;;;;;;;;;;;;;;;3.49;84.42;100361.66;7358999;19;19986;-65
2022/12/09 06:02:27;;;;;;;;;;;;;;;3.47;84.30;100350.53;7353135;19;19933;-64
2022/12/09 06:04:54;;;;;;;;;;;;;;;3.48;84.36;100358.22;7360049;19;20651;-64
2022/12/09 06:07:21;;;;;;;;;;;;;;;3.50;84.95;100365.91;7352699;19;19922;-65
2022/12/09 06:09:48;;;;;;;;;;;;;;;3.51;84.79;100367.53;7355479;19;19926;-65
2022/12/09 06:12:23;;;;;;;;;;;;;;;3.54;84.80;100368.16;7351123;19;20229;-64
2022/12/09 06:14:51;;;;;;;;;;;;;;;3.57;84.98;100365.28;7354424;19;19991;-66
2022/12/09 06:17:18;;;;;;;;;;;;;;;3.59;85.00;100379.00;7352971;19;19923;-65
2022/12/09 06:19:45;;;;;;;;;;;;;;;3.61;84.61;100384.06;7353039;19;19931;-66
2022/12/09 06:22:17;;;;;;;;;;;;;;;3.64;84.37;100386.47;7347922;19;19930;-64
2022/12/09 06:24:44;;;;;;;;;;;;;;;3.65;83.89;100381.13;7351462;19;19969;-66
2022/12/09 06:27:11;;;;;;;;;;;;;;;3.64;83.33;100384.69;7352359;19;20005;-66
2022/12/09 06:29:38;;;;;;;;;;;;;;;3.69;83.12;100386.91;7353106;19;20733;-67
2022/12/09 06:32:05;;;;;;;;;;;;;;;3.70;82.46;100397.22;7350261;19;19919;-65
2022/12/09 06:34:32;;;;;;;;;;;;;;;3.70;82.32;100394.63;7352583;19;20624;-66
2022/12/09 06:36:59;;;;;;;;;;;;;;;3.74;82.18;100403.00;7350308;19;20269;-65
2022/12/09 06:39:26;;;;;;;;;;;;;;;3.76;82.89;100401.09;7352389;19;19935;-64
2022/12/09 06:41:54;;;;;;;;;;;;;;;3.76;82.39;100401.09;7352882;19;19922;-63
2022/12/09 06:44:20;;;;;;;;;;;;;;;3.77;82.04;100398.38;7352537;19;19970;-67
2022/12/09 06:46:49;;;;;;;;;;;;;;;3.76;82.01;100395.88;7352678;19;20549;-66
2022/12/09 06:49:16;;;;;;;;;;;;;;;3.78;82.15;100404.41;7351870;19;20015;-64
2022/12/09 06:51:43;;;;;;;;;;;;;;;3.73;83.20;100396.97;7346352;19;19911;-66
2022/12/09 06:54:11;;;;;;;;;;;;;;;3.72;84.17;100399.69;7351296;19;19986;-66
2022/12/09 06:56:38;;;;;;;;;;;;;;;3.62;84.54;100396.97;7350568;19;20324;-65
2022/12/09 06:59:07;;;;;;;;;;;;;;;3.58;85.04;100392.97;7353047;19;19931;-66
2022/12/09 07:01:34;;;;;;;;;;;;;;;3.52;85.60;100390.00;7351994;19;19923;-64
2022/12/09 07:04:02;;;;;;;;;;;;;;;3.43;85.85;100386.34;7353671;19;20626;-66
2022/12/09 07:06:40;;;;;;;;;;;;;;;3.40;85.97;100384.78;7351710;19;20231;-65
2022/12/09 07:09:12;;;;;;;;;;;;;;;3.41;86.71;100381.25;7353829;19;19918;-64
2022/12/09 07:11:41;;;;;;;;;;;;;;;3.43;86.90;100383.75;7348688;19;19955;-66
2022/12/09 07:14:09;;;;;;;;;;;;;;;3.46;86.82;100383.50;7353593;19;20409;-65
2022/12/09 07:16:36;;;;;;;;;;;;;;;3.40;86.96;100381.38;7351497;19;20340;-66
2022/12/09 07:19:04;;;;;;;;;;;;;;;3.39;87.24;100390.13;7351259;19;19998;-66
2022/12/09 07:21:32;;;;;;;;;;;;;;;3.39;87.99;100387.53;7347851;19;20714;-65
2022/12/09 07:23:59;;;;;;;;;;;;;;;3.39;87.81;100387.53;7351290;19;20509;-66
2022/12/09 07:26:29;;;;;;;;;;;;;;;3.42;88.37;100397.69;7352467;19;20034;-64
2022/12/09 07:28:56;;;;;;;;;;;;;;;3.44;88.13;100395.81;7352661;19;19946;-65
2022/12/09 07:31:24;;;;;;;;;;;;;;;3.44;88.02;100395.81;7349215;19;20207;-64
2022/12/09 07:33:52;;;;;;;;;;;;;;;3.43;88.67;100394.97;7350015;19;19918;-65
2022/12/09 07:36:20;;;;;;;;;;;;;;;3.45;89.08;100400.88;7348698;19;19931;-65
2022/12/09 07:38:52;;;;;;;;;;;;;;;3.45;88.86;100400.88;7352818;19;19922;-65
2022/12/09 07:41:20;;;;;;;;;;;;;;;3.49;88.96;100398.03;7347982;19;20018;-66
2022/12/09 07:43:47;;;;;;;;;;;;;;;3.50;88.96;100397.94;7352104;19;20398;-65
2022/12/09 07:46:15;;;;;;;;;;;;;;;3.55;89.22;100394.97;7351712;19;19957;-65
2022/12/09 07:48:43;;;;;;;;;;;;;;;3.58;88.98;100390.34;7352851;19;20227;-65
2022/12/09 07:51:10;;;;;;;;;;;;;;;3.60;88.75;100388.47;7342665;19;19923;-65
2022/12/09 07:53:37;;;;;;;;;;;;;;;3.59;88.83;100392.03;7351012;19;19933;-65
2022/12/09 07:56:06;;;;;;;;;;;;;;;3.59;88.66;100397.22;7350125;19;19994;-64
2022/12/09 07:58:34;;;;;;;;;;;;;;;3.59;88.64;100393.78;7351357;19;19931;-64
2022/12/09 08:01:05;;;;;;;;;;;;;;;3.58;88.45;100402.53;7350022;19;19923;-67
2022/12/09 08:03:32;;;;;;;;;;;;;;;3.61;88.26;100399.69;7348369;19;19927;-67
2022/12/09 08:05:59;;;;;;;;;;;;;;;3.61;88.66;100392.72;7348670;19;19926;-66
2022/12/09 08:08:26;;;;;;;;;;;;;;;3.62;88.22;100391.75;7351461;19;19922;-66
2022/12/09 08:10:53;;;;;;;;;;;;;;;3.63;87.95;100383.03;7349899;19;19934;-65
2022/12/09 08:13:21;;;;;;;;;;;;;;;3.62;88.56;100391.75;7347608;19;19950;-65
2022/12/09 08:15:47;;;;;;;;;;;;;;;3.65;88.43;100390.72;7350909;19;20021;-67
2022/12/09 08:18:15;;;;;;;;;;;;;;;3.66;88.42;100392.34;7349449;19;20327;-66
2022/12/09 08:20:42;;;;;;;;;;;;;;;3.67;88.37;100397.44;7350633;19;20189;-67
2022/12/09 08:23:09;;;;;;;;;;;;;;;3.70;88.35;100404.19;7350836;19;20783;-64
2022/12/09 08:25:36;;;;;;;;;;;;;;;3.69;88.00;100400.75;7351888;19;19915;-66
2022/12/09 08:28:04;;;;;;;;;;;;;;;3.71;88.10;100405.81;7351111;19;19951;-67
2022/12/09 08:30:31;;;;;;;;;;;;;;;3.73;88.00;100402.16;7349145;19;20496;-65
2022/12/09 08:32:58;;;;;;;;;;;;;;;3.79;87.67;100412.09;7341018;19;19926;-65
2022/12/09 08:35:28;;;;;;;;;;;;;;;3.84;87.38;100401.34;7350705;19;20352;-65
2022/12/09 08:37:55;;;;;;;;;;;;;;;3.87;87.67;100404.50;7346259;19;19930;-65
2022/12/09 08:40:22;;;;;;;;;;;;;;;3.90;87.32;100407.84;7351265;19;19930;-65
2022/12/09 08:42:50;;;;;;;;;;;;;;;3.94;87.12;100406.63;7348336;19;19946;-66
2022/12/09 08:45:16;;;;;;;;;;;;;;;3.96;87.32;100404.75;7350838;19;20014;-64
2022/12/09 08:47:43;;;;;;;;;;;;;;;4.01;87.44;100410.41;7348554;19;19927;-65
2022/12/09 08:50:10;;;;;;;;;;;;;;;4.05;87.94;100410.06;7349580;19;19957;-65
2022/12/09 08:52:41;;;;;;;;;;;;;;;4.06;87.39;100413.47;7341967;19;19925;-64
2022/12/09 08:55:08;;;;;;;;;;;;;;;4.09;87.03;100408.03;7351599;19;19919;-65
2022/12/09 08:57:35;;;;;;;;;;;;;;;4.12;86.97;100411.19;7353234;19;19923;-66
2022/12/09 09:00:02;;;;;;;;;;;;;;;4.13;87.23;100412.84;7356126;19;19915;-66
2022/12/09 09:02:30;;;;;;;;;;;;;;;4.25;90.23;100408.47;7356167;19;20729;-65
2022/12/09 09:04:58;;;;;;;;;;;;;;;4.28;89.65;100411.63;7357622;19;19977;-67
2022/12/09 09:07:25;;;;;;;;;;;;;;;4.24;87.89;100415.44;7353442;19;19926;-65
2022/12/09 09:09:52;;;;;;;;;;;;;;;4.22;87.71;100419.94;7356963;19;19926;-65
2022/12/09 09:12:21;;;;;;;;;;;;;;;4.25;88.42;100416.28;7354256;19;20403;-66
2022/12/09 09:14:48;;;;;;;;;;;;;;;4.27;88.72;100417.78;7357335;19;19915;-66
2022/12/09 09:17:15;;;;;;;;;;;;;;;4.26;87.87;100416.16;7350412;19;19959;-66
2022/12/09 09:19:42;;;;;;;;;;;;;;;4.29;87.90;100418.50;7355899;19;19953;-64
2022/12/09 09:22:17;;;;;;;;;;;;;;;4.32;87.97;100416.63;7352303;19;19915;-66
2022/12/09 09:24:45;;;;;;;;;;;;;;;4.35;87.60;100418.97;7358863;19;19938;-67
2022/12/09 09:27:12;;;;;;;;;;;;;;;4.34;86.52;100417.31;7358173;19;19934;-66
2022/12/09 09:29:39;;;;;;;;;;;;;;;4.38;86.67;100423.91;7354207;19;20494;-67
2022/12/09 09:32:06;;;;;;;;;;;;;;;4.36;86.66;100412.81;7352930;19;20469;-67
2022/12/09 09:34:34;;;;;;;;;;;;;;;4.37;86.60;100414.47;7357655;19;19915;-65
2022/12/09 09:37:01;;;;;;;;;;;;;;;4.38;86.37;100413.50;7353115;19;19926;-65
2022/12/09 09:39:28;;;;;;;;;;;;;;;4.39;86.28;100415.97;7355570;19;19914;-65
2022/12/09 09:42:05;;;;;;;;;;;;;;;4.41;86.52;100429.72;7355536;19;19969;-65
2022/12/09 09:44:47;;;;;;;;;;;;;;;4.45;86.39;100423.31;7356186;19;19919;-64
2022/12/09 09:47:16;;;;;;;;;;;;;;;4.50;86.64;100423.75;7356034;19;19915;-65
2022/12/09 09:49:52;;;;;;;;;;;;;;;4.53;86.47;100410.47;7357071;19;20582;-65
2022/12/09 09:52:26;;;;;;;;;;;;;;;4.56;86.30;100417.22;7353148;19;21099;-65
2022/12/09 09:54:55;;;;;;;;;;;;;;;4.59;85.92;100416.97;7356851;19;20547;-69
2022/12/09 09:57:38;;;;;;;;;;;;;;;4.64;86.42;100425.25;7350463;19;19986;-65
2022/12/09 10:00:12;;;;;;;;;;;;;;;4.65;86.21;100427.72;7354169;19;19919;-65
2022/12/09 10:02:55;;;;;;;;;;;;;;;4.67;85.81;100425.81;7354719;19;20659;-66
2022/12/09 10:05:26;;;;;;;;;;;;;;;4.68;85.28;100424.84;7358813;19;19919;-66
2022/12/09 10:08:12;;;;;;;;;;;;;;;4.70;85.34;100433.38;7354422;19;19929;-65
2022/12/09 10:10:43;;;;;;;;;;;;;;;4.74;85.54;100433.97;7355929;19;19951;-66
2022/12/09 10:13:19;;;;;;;;;;;;;;;4.80;85.59;100432.63;7356923;19;20055;-66
2022/12/09 10:16:10;;;;;;;;;;;;;;;4.87;85.80;100439.00;7355692;19;19922;-65
2022/12/09 10:18:41;;;;;;;;;;;;;;;4.93;86.23;100433.25;7354490;19;19919;-67
2022/12/09 10:21:16;;;;;;;;;;;;;;;4.99;85.90;100448.41;7353915;19;19930;-66
2022/12/09 10:23:44;;;;;;;;;;;;;;;4.99;85.03;100441.41;7355346;19;20187;-64
2022/12/09 10:26:16;;;;;;;;;;;;;;;5.02;84.20;100440.34;7357367;19;19930;-64
2022/12/09 10:28:46;;;;;;;;;;;;;;;5.05;83.44;100437.47;7357103;19;20374;-65
2022/12/09 10:31:13;;;;;;;;;;;;;;;5.08;83.28;100432.81;7353961;19;21744;-67
2022/12/09 10:33:40;;;;;;;;;;;;;;;5.14;83.05;100432.31;7355660;19;19957;-65
2022/12/09 10:36:24;;;;;;;;;;;;;;;5.15;82.22;100426.16;7350759;19;19929;-65
2022/12/09 10:38:59;;;;;;;;;;;;;;;5.16;82.12;100427.00;7354150;19;19919;-66
2022/12/09 10:44:24;;;;;;;;;;;;;;;5.18;82.02;100425.09;7352109;19;19948;-65
2022/12/09 10:47:02;;;;;;;;;;;;;;;5.20;82.23;100420.56;7352443;19;19949;-63
2022/12/09 10:49:30;;;;;;;;;;;;;;;5.21;81.96;100424.81;7354642;19;20615;-65
2022/12/09 10:51:57;;;;;;;;;;;;;;;5.26;81.80;100416.59;7349818;19;20240;-65
2022/12/09 10:54:30;;;;;;;;;;;;;;;5.28;82.18;100417.31;7354001;19;19926;-65
2022/12/09 10:57:02;;;;;;;;;;;;;;;5.23;81.35;100414.28;7353226;19;19919;-65
2022/12/09 10:59:30;;;;;;;;;;;;;;;5.23;81.06;100411.66;7355427;19;20002;-66
2022/12/09 11:02:01;;;;;;;;;;;;;;;5.23;80.97;100409.06;7352733;19;19914;-65
2022/12/09 11:04:29;;;;;;;;;;;;;;;5.23;80.92;100414.28;7355306;19;20108;-65
2022/12/09 11:07:13;;;;;;;;;;;;;;;5.22;80.80;100413.44;7352137;19;20018;-66
2022/12/09 11:09:46;;;;;;;;;;;;;;;5.22;80.70;100412.63;7351257;19;20221;-65
2022/12/09 11:12:29;;;;;;;;;;;;;;;5.18;81.47;100409.44;7348595;19;19927;-67
2022/12/09 11:15:20;;;;;;;;;;;;;;;5.19;81.40;100405.84;7352488;19;19974;-65
2022/12/09 11:18:16;;;;;;;;;;;;;;;5.24;81.67;100402.84;7350339;19;20375;-65
2022/12/09 11:20:53;;;;;;;;;;;;;;;5.30;81.00;100411.00;7348246;19;20526;-66
2022/12/09 11:23:20;;;;;;;;;;;;;;;5.33;80.43;100407.31;7351690;19;19918;-66
2022/12/09 11:25:53;;;;;;;;;;;;;;;5.35;80.60;100394.97;7353347;19;20558;-66
2022/12/09 11:28:31;;;;;;;;;;;;;;;5.39;80.89;100399.78;7351605;19;20302;-65
2022/12/09 11:31:06;;;;;;;;;;;;;;;5.44;80.85;100399.38;7351635;19;19930;-65
2022/12/09 11:33:54;;;;;;;;;;;;;;;5.47;80.01;100405.19;7352806;19;20609;-65
2022/12/09 11:36:25;;;;;;;;;;;;;;;5.50;80.29;100393.66;7351230;19;20225;-65
2022/12/09 11:39:26;;;;;;;;;;;;;;;5.52;80.20;100397.81;7353111;19;19927;-64
2022/12/09 11:45:05;;;;;;;;;;;;;;;5.72;79.63;100403.91;7350446;19;19926;-65
2022/12/09 11:47:37;;;;;;;;;;;;;;;5.78;79.85;100392.13;7349223;19;19922;-67
2022/12/09 11:50:30;;;;;;;;;;;;;;;5.81;80.08;100394.44;7300859;19;20484;-66
2022/12/09 11:53:10;;;;;;;;;;;;;;;5.81;79.11;100379.63;7344957;19;20113;-65
2022/12/09 11:55:50;;;;;;;;;;;;;;;5.84;79.32;100386.38;7346789;19;20615;-67
2022/12/09 11:58:21;;;;;;;;;;;;;;;5.82;79.17;100383.06;7341104;19;19938;-65
2022/12/09 12:00:51;;;;;;;;;;;;;;;5.82;79.71;100386.50;7345967;19;20210;-65
2022/12/09 12:03:20;;;;;;;;;;;;;;;5.78;78.88;100381.69;7352086;19;19922;-65
2022/12/09 12:05:49;;;;;;;;;;;;;;;5.78;78.88;100377.28;7347134;19;19922;-66
2022/12/09 12:08:16;;;;;;;;;;;;;;;5.80;78.76;100379.75;7350714;19;19923;-64
2022/12/09 12:10:49;;;;;;;;;;;;;;;5.83;79.05;100384.72;7350035;19;20031;-66
2022/12/09 12:13:16;;;;;;;;;;;;;;;5.85;78.77;100381.00;7348754;19;19926;-65
2022/12/09 12:15:48;;;;;;;;;;;;;;;5.81;78.16;100381.41;7350929;19;19930;-66
2022/12/09 12:18:20;;;;;;;;;;;;;;;5.80;78.80;100374.53;7350814;19;19975;-66
2022/12/09 12:20:55;;;;;;;;;;;;;;;5.80;79.18;100372.75;7343349;19;19922;-66
2022/12/09 12:23:22;;;;;;;;;;;;;;;5.81;79.71;100365.75;7346814;19;20911;-65
2022/12/09 12:25:49;;;;;;;;;;;;;;;5.83;79.04;100364.66;7343897;19;19958;-64
2022/12/09 12:28:15;;;;;;;;;;;;;;;5.86;79.24;100364.38;7343446;19;19919;-65
2022/12/09 12:30:49;;;;;;;;;;;;;;;5.88;78.73;100364.28;7346120;19;20232;-65
2022/12/09 12:33:28;;;;;;;;;;;;;;;5.88;78.59;100354.69;7351603;19;19922;-66
2022/12/09 12:36:24;;;;;;;;;;;;;;;5.91;78.46;100354.41;7350828;19;20049;-65
2022/12/09 12:39:03;;;;;;;;;;;;;;;5.93;78.84;100357.72;7351633;19;19911;-64
2022/12/09 12:41:48;;;;;;;;;;;;;;;5.95;77.75;100354.94;7352554;19;20128;-65
2022/12/09 12:47:17;;;;;;;;;;;;;;;5.87;78.27;100353.03;7351801;19;19922;-64
2022/12/09 12:49:56;;;;;;;;;;;;;;;5.89;78.96;100355.50;7353831;19;20163;-65
2022/12/09 12:52:34;;;;;;;;;;;;;;;5.93;79.01;100349.88;7342430;19;20413;-64
2022/12/09 12:55:25;;;;;;;;;;;;;;;5.96;79.28;100364.44;7352588;19;19930;-64
2022/12/09 12:57:56;;;;;;;;;;;;;;;5.95;79.16;100354.94;7347979;19;20226;-65
2022/12/09 13:00:26;;;;;;;;;;;;;;;5.97;78.30;100353.03;7353971;19;19933;-64
2022/12/09 13:03:18;;;;;;;;;;;;;;;6.00;78.27;100355.38;7350737;19;19927;-64
2022/12/09 13:05:49;;;;;;;;;;;;;;;6.03;77.40;100349.06;7349452;19;20438;-65
2022/12/09 13:08:18;;;;;;;;;;;;;;;6.05;77.69;100354.94;7351112;19;19923;-64
2022/12/09 13:10:53;;;;;;;;;;;;;;;6.05;77.40;100347.13;7349949;19;19927;-66